createdAt,value
2022-07-29T00:01:54.457Z,98641.22
2022-07-29T00:04:23.914Z,98630.38
2022-07-29T00:06:51.154Z,98631.88
2022-07-29T00:09:21.035Z,98630.81
2022-07-29T00:11:51.583Z,98628.00
2022-07-29T00:14:19.172Z,98624.19
2022-07-29T00:16:46.592Z,98622.97
2022-07-29T00:19:13.935Z,98623.69
2022-07-29T00:21:41.292Z,98626.50
2022-07-29T00:24:09.188Z,98617.09
2022-07-29T00:26:36.824Z,98618.88
2022-07-29T00:29:33.111Z,98619.66
2022-07-29T00:31:54.271Z,98611.91
2022-07-29T00:34:41.465Z,98614.38
2022-07-29T00:37:09.131Z,98612.41
2022-07-29T00:39:36.423Z,98616.69
2022-07-29T00:42:06.250Z,98612.22
2022-07-29T00:44:43.706Z,98623.56
2022-07-29T00:47:13.359Z,98611.03
2022-07-29T00:49:42.971Z,98615.69
2022-07-29T00:52:12.307Z,98611.63
2022-07-29T00:54:44.534Z,98621.31
2022-07-29T00:57:17.681Z,98605.75
2022-07-29T00:59:44.943Z,98610.44
2022-07-29T01:02:12.627Z,98603.72
2022-07-29T01:04:41.313Z,98606.09
2022-07-29T01:07:09.040Z,98607.28
2022-07-29T01:09:46.007Z,98600.50
2022-07-29T01:12:21.267Z,98599.56
2022-07-29T01:14:51.809Z,98592.03
2022-07-29T01:17:32.791Z,98590.75
2022-07-29T01:20:22.944Z,98592.41
2022-07-29T01:23:42.170Z,98580.69
2022-07-29T01:27:25.179Z,98584.88
2022-07-29T01:30:02.467Z,98585.84
2022-07-29T01:33:51.409Z,98583.44
2022-07-29T01:37:34.122Z,98579.72
2022-07-29T01:41:16.849Z,98578.94
2022-07-29T01:44:59.498Z,98575.63
2022-07-29T01:47:44.736Z,98575.59
2022-07-29T01:51:28.311Z,98580.22
2022-07-29T01:55:10.956Z,98575.56
2022-07-29T01:58:53.827Z,98574.13
2022-07-29T02:02:42.825Z,98585.50
2022-07-29T02:06:28.494Z,98580.00
2022-07-29T02:10:11.425Z,98578.28
2022-07-29T02:13:54.618Z,98579.69
2022-07-29T02:17:38.885Z,98572.53
2022-07-29T02:20:18.599Z,98570.78
2022-07-29T02:22:52.463Z,98575.41
2022-07-29T02:25:23.471Z,98568.66
2022-07-29T02:27:56.612Z,98570.22
2022-07-29T02:30:26.714Z,98565.25
2022-07-29T02:32:56.394Z,98575.72
2022-07-29T02:35:26.980Z,98559.84
2022-07-29T02:38:14.122Z,98567.06
2022-07-29T02:40:47.511Z,98573.31
2022-07-29T02:43:18.167Z,98562.88
2022-07-29T02:45:55.340Z,98564.41
2022-07-29T02:48:40.833Z,98559.75
2022-07-29T02:51:44.179Z,98568.34
2022-07-29T02:55:20.420Z,98563.25
2022-07-29T02:58:07.397Z,98564.88
2022-07-29T03:00:40.384Z,98575.47
2022-07-29T03:03:16.402Z,98573.38
2022-07-29T03:05:43.932Z,98563.69
2022-07-29T03:08:14.030Z,98570.41
2022-07-29T03:10:46.526Z,98569.25
2022-07-29T03:13:15.454Z,98567.13
2022-07-29T03:15:48.418Z,98569.97
2022-07-29T03:18:16.846Z,98566.31
2022-07-29T03:20:44.697Z,98570.00
2022-07-29T03:23:20.795Z,98577.28
2022-07-29T03:25:48.288Z,98576.44
2022-07-29T03:28:15.855Z,98574.44
2022-07-29T03:30:47.032Z,98559.84
2022-07-29T03:33:15.359Z,98567.72
2022-07-29T03:35:43.281Z,98570.28
2022-07-29T03:38:16.096Z,98559.97
2022-07-29T03:41:07.359Z,98572.59
2022-07-29T03:43:49.608Z,98578.84
2022-07-29T03:46:19.237Z,98576.84
2022-07-29T03:48:51.976Z,98574.88
2022-07-29T03:51:19.332Z,98570.72
2022-07-29T03:54:10.084Z,98579.88
2022-07-29T03:56:45.512Z,98580.72
2022-07-29T03:59:16.538Z,98587.94
2022-07-29T04:01:47.096Z,98585.31
2022-07-29T04:04:18.539Z,98587.72
2022-07-29T04:06:48.397Z,98587.19
2022-07-29T04:09:18.425Z,98589.28
2022-07-29T04:12:02.245Z,98593.44
2022-07-29T04:14:36.898Z,98598.63
2022-07-29T04:17:14.420Z,98592.50
2022-07-29T04:19:44.525Z,98595.19
2022-07-29T04:22:16.133Z,98601.09
2022-07-29T04:24:44.592Z,98605.69
2022-07-29T04:27:17.782Z,98604.25
2022-07-29T04:29:56.959Z,98602.75
2022-07-29T04:32:27.139Z,98605.38
2022-07-29T04:34:54.865Z,98603.13
2022-07-29T04:37:24.885Z,98613.69
2022-07-29T04:39:57.592Z,98609.72
2022-07-29T04:42:27.970Z,98606.72
2022-07-29T04:45:01.249Z,98615.13
2022-07-29T04:47:29.146Z,98609.56
2022-07-29T04:49:57.315Z,98603.09
2022-07-29T04:52:24.606Z,98612.13
2022-07-29T04:54:52.592Z,98608.56
2022-07-29T04:57:20.266Z,98614.63
2022-07-29T04:59:47.767Z,98613.03
2022-07-29T05:02:18.239Z,98614.63
2022-07-29T05:04:49.438Z,98619.19
2022-07-29T05:07:16.950Z,98611.66
2022-07-29T05:09:44.542Z,98619.44
2022-07-29T05:12:13.152Z,98616.31
2022-07-29T05:14:40.911Z,98618.00
2022-07-29T05:17:08.871Z,98622.75
2022-07-29T05:19:41.477Z,98628.03
2022-07-29T05:22:14.331Z,98632.56
2022-07-29T05:24:45.369Z,98621.41
2022-07-29T05:27:22.395Z,98634.50
2022-07-29T05:29:53.313Z,98640.03
2022-07-29T05:32:25.049Z,98628.69
2022-07-29T05:35:06.030Z,98626.22
2022-07-29T05:37:42.285Z,98633.47
2022-07-29T05:40:13.474Z,98632.78
2022-07-29T05:42:49.842Z,98642.16
2022-07-29T05:45:25.134Z,98636.75
2022-07-29T05:47:55.996Z,98647.75
2022-07-29T05:50:28.747Z,98641.28
2022-07-29T05:52:56.573Z,98650.25
2022-07-29T05:55:43.068Z,98650.50
2022-07-29T05:58:18.482Z,98651.44
2022-07-29T06:01:01.790Z,98649.69
2022-07-29T06:03:30.098Z,98654.47
2022-07-29T06:05:57.779Z,98659.91
2022-07-29T06:08:28.375Z,98658.00
2022-07-29T06:10:58.530Z,98663.06
2022-07-29T06:13:34.664Z,98667.94
2022-07-29T06:16:06.501Z,98668.66
2022-07-29T06:18:37.388Z,98662.25
2022-07-29T06:21:18.759Z,98662.00
2022-07-29T06:23:47.879Z,98666.56
2022-07-29T06:26:16.018Z,98664.16
2022-07-29T06:28:44.569Z,98666.03
2022-07-29T06:31:14.943Z,98672.75
2022-07-29T06:33:46.023Z,98668.59
2022-07-29T06:36:13.689Z,98681.19
2022-07-29T06:38:47.561Z,98683.34
2022-07-29T06:41:18.540Z,98682.22
2022-07-29T06:43:52.571Z,98678.91
2022-07-29T06:46:24.465Z,98683.03
2022-07-29T06:48:55.569Z,98684.72
2022-07-29T06:51:24.189Z,98681.78
2022-07-29T06:53:59.737Z,98693.06
2022-07-29T06:56:42.062Z,98685.56
2022-07-29T06:59:13.309Z,98682.50
2022-07-29T07:01:56.967Z,98686.00
2022-07-29T07:04:28.135Z,98693.75
2022-07-29T07:07:02.344Z,98700.34
2022-07-29T07:09:40.381Z,98698.50
2022-07-29T07:12:17.632Z,98694.25
2022-07-29T07:14:45.797Z,98686.78
2022-07-29T07:17:15.593Z,98682.84
2022-07-29T07:19:52.256Z,98681.69
2022-07-29T07:22:26.101Z,98680.28
2022-07-29T07:25:19.112Z,98686.00
2022-07-29T07:27:46.902Z,98684.75
2022-07-29T07:30:15.221Z,98692.94
2022-07-29T07:32:42.905Z,98695.91
2022-07-29T07:35:11.979Z,98690.56
2022-07-29T07:37:45.566Z,98690.25
2022-07-29T07:40:18.639Z,98694.97
2022-07-29T07:42:46.492Z,98685.34
2022-07-29T07:45:16.102Z,98697.06
2022-07-29T07:47:44.632Z,98692.38
2022-07-29T07:50:18.853Z,98686.03
2022-07-29T07:52:58.560Z,98691.09
2022-07-29T07:55:27.416Z,98694.69
2022-07-29T07:57:56.610Z,98694.63
2022-07-29T08:00:24.794Z,98698.38
2022-07-29T08:02:52.261Z,98698.25
2022-07-29T08:05:19.812Z,98696.28
2022-07-29T08:07:48.311Z,98699.91
2022-07-29T08:10:37.358Z,98703.19
2022-07-29T08:13:11.806Z,98706.13
2022-07-29T08:15:41.991Z,98699.56
2022-07-29T08:18:09.837Z,98706.81
2022-07-29T08:20:39.921Z,98696.03
2022-07-29T08:23:11.758Z,98694.06
2022-07-29T08:25:40.370Z,98690.75
2022-07-29T08:28:10.881Z,98690.28
2022-07-29T08:30:38.490Z,98695.25
2022-07-29T08:33:06.114Z,98696.97
2022-07-29T08:35:35.525Z,98702.22
2022-07-29T08:38:04.441Z,98700.06
2022-07-29T08:40:34.814Z,98697.53
2022-07-29T08:43:09.890Z,98693.19
2022-07-29T08:45:51.274Z,98698.50
2022-07-29T08:48:25.738Z,98699.97
2022-07-29T08:50:57.833Z,98697.66
2022-07-29T08:53:28.203Z,98706.72
2022-07-29T08:56:02.102Z,98703.44
2022-07-29T08:58:37.041Z,98696.16
2022-07-29T09:01:12.225Z,98702.75
2022-07-29T09:03:47.261Z,98693.13
2022-07-29T09:06:22.527Z,98696.94
2022-07-29T09:08:50.926Z,98708.53
2022-07-29T09:11:20.832Z,98702.41
2022-07-29T09:13:50.483Z,98698.94
2022-07-29T09:16:37.222Z,98700.97
2022-07-29T09:19:29.929Z,98698.72
2022-07-29T09:22:03.134Z,98700.56
2022-07-29T09:24:48.275Z,98694.59
2022-07-29T09:27:31.181Z,98691.63
2022-07-29T09:30:15.875Z,98694.13
2022-07-29T09:33:03.682Z,98688.44
2022-07-29T09:35:32.240Z,98692.59
2022-07-29T09:38:17.637Z,98685.16
2022-07-29T09:41:05.862Z,98680.53
2022-07-29T09:43:35.319Z,98677.38
2022-07-29T09:46:14.440Z,98679.94
2022-07-29T09:48:42.155Z,98675.72
2022-07-29T09:51:24.233Z,98677.31
2022-07-29T09:54:08.220Z,98667.94
2022-07-29T09:56:47.132Z,98663.66
2022-07-29T09:59:27.940Z,98656.97
2022-07-29T10:01:58.056Z,98653.22
2022-07-29T10:04:41.507Z,98655.88
2022-07-29T10:07:09.492Z,98651.16
2022-07-29T10:09:37.719Z,98645.44
2022-07-29T10:12:10.197Z,98650.34
2022-07-29T10:14:40.941Z,98649.16
2022-07-29T10:17:11.523Z,98643.66
2022-07-29T10:19:40.737Z,98637.75
2022-07-29T10:22:11.509Z,98646.13
2022-07-29T10:24:45.952Z,98648.19
2022-07-29T10:27:27.112Z,98631.88
2022-07-29T10:29:57.368Z,98619.28
2022-07-29T10:33:18.761Z,98623.09
2022-07-29T10:36:47.697Z,98629.06
2022-07-29T10:40:53.073Z,98617.03
2022-07-29T10:44:04.874Z,98620.50
2022-07-29T10:46:42.975Z,98602.97
2022-07-29T10:50:26.729Z,98601.94
2022-07-29T10:52:59.603Z,98600.63
2022-07-29T11:00:04.950Z,98594.53
2022-07-29T11:03:57.856Z,98594.28
2022-07-29T11:07:03.797Z,98598.66
2022-07-29T11:09:37.443Z,98594.19
2022-07-29T11:12:37.728Z,98587.66
2022-07-29T11:15:10.039Z,98587.47
2022-07-29T11:17:59.658Z,98583.50
2022-07-29T11:20:50.997Z,98604.22
2022-07-29T11:24:35.782Z,98628.38
2022-07-29T11:28:27.081Z,98649.06
2022-07-29T11:32:15.756Z,98702.94
2022-07-29T11:34:48.596Z,98774.53
2022-07-29T11:37:27.631Z,98752.00
2022-07-29T11:40:01.564Z,98729.47
2022-07-29T11:42:33.058Z,98650.09
2022-07-29T11:45:41.902Z,98652.44
2022-07-29T11:48:28.334Z,98688.34
2022-07-29T11:50:58.588Z,98719.91
2022-07-29T11:53:32.890Z,98711.34
2022-07-29T11:56:02.459Z,98710.97
2022-07-29T11:58:32.159Z,98714.03
2022-07-29T12:01:19.105Z,98711.41
2022-07-29T12:03:48.933Z,98717.22
2022-07-29T12:06:18.078Z,98717.63
2022-07-29T12:09:14.462Z,98707.97
2022-07-29T12:11:47.328Z,98701.13
2022-07-29T12:14:34.743Z,98687.00
2022-07-29T12:17:06.385Z,98687.94
2022-07-29T12:19:46.260Z,98672.56
2022-07-29T12:22:44.450Z,98677.59
2022-07-29T12:25:32.326Z,98675.44
2022-07-29T12:28:14.128Z,98675.84
2022-07-29T12:30:51.633Z,98685.75
2022-07-29T12:33:30.762Z,98682.75
2022-07-29T12:36:14.313Z,98685.59
2022-07-29T12:38:50.732Z,98685.66
2022-07-29T12:41:21.161Z,98687.38
2022-07-29T12:43:59.268Z,98689.03
2022-07-29T12:46:40.837Z,98690.22
2022-07-29T12:49:08.448Z,98686.41
2022-07-29T12:51:46.950Z,98687.41
2022-07-29T12:54:39.977Z,98688.56
2022-07-29T12:57:07.572Z,98679.84
2022-07-29T13:00:14.431Z,98684.69
2022-07-29T13:03:28.177Z,98677.13
2022-07-29T13:05:59.205Z,98676.59
2022-07-29T13:08:38.826Z,98688.94
2022-07-29T13:12:27.874Z,98686.19
2022-07-29T13:14:55.696Z,98681.06
2022-07-29T13:18:41.768Z,98685.91
2022-07-29T13:21:27.970Z,98679.91
2022-07-29T13:24:09.079Z,98693.56
2022-07-29T13:26:45.527Z,98696.72
2022-07-29T13:29:17.703Z,98720.38
2022-07-29T13:31:46.049Z,98725.88
2022-07-29T13:35:30.720Z,98724.53
2022-07-29T13:39:16.450Z,98712.84
2022-07-29T13:41:44.081Z,98710.53
2022-07-29T13:45:30.807Z,98704.47
2022-07-29T13:47:58.333Z,98708.81
2022-07-29T13:51:44.683Z,98707.03
2022-07-29T13:54:14.415Z,98699.41
2022-07-29T13:56:41.740Z,98696.75
2022-07-29T14:00:24.817Z,98686.38
2022-07-29T14:02:52.311Z,98681.25
2022-07-29T14:05:19.694Z,98668.75
2022-07-29T14:07:46.936Z,98656.09
2022-07-29T14:10:18.399Z,98652.38
2022-07-29T14:12:47.218Z,98647.44
2022-07-29T14:15:18.286Z,98646.34
2022-07-29T14:17:45.525Z,98646.59
2022-07-29T14:20:13.190Z,98650.03
2022-07-29T14:22:42.602Z,98655.97
2022-07-29T14:25:14.925Z,98655.78
2022-07-29T14:27:46.392Z,98652.81
2022-07-29T14:30:14.246Z,98658.63
2022-07-29T14:32:44.377Z,98659.72
2022-07-29T14:35:11.787Z,98662.13
2022-07-29T14:37:40.820Z,98665.69
2022-07-29T14:40:10.514Z,98670.66
2022-07-29T14:42:38.917Z,98659.88
2022-07-29T14:45:10.205Z,98659.63
2022-07-29T14:47:43.232Z,98673.75
2022-07-29T14:50:15.467Z,98672.88
2022-07-29T14:52:43.179Z,98665.97
2022-07-29T14:55:16.464Z,98678.69
2022-07-29T14:57:54.341Z,98682.41
2022-07-29T15:00:27.403Z,98674.09
2022-07-29T15:03:02.299Z,98667.38
2022-07-29T15:05:34.142Z,98683.28
2022-07-29T15:08:02.396Z,98677.53
2022-07-29T15:10:30.366Z,98675.69
2022-07-29T15:12:58.310Z,98677.91
2022-07-29T15:15:28.418Z,98683.16
2022-07-29T15:18:01.368Z,98679.78
2022-07-29T15:20:32.724Z,98685.25
2022-07-29T15:23:05.326Z,98682.00
2022-07-29T15:25:33.957Z,98680.75
2022-07-29T15:28:03.849Z,98679.13
2022-07-29T15:30:34.843Z,98679.38
2022-07-29T15:33:04.365Z,98687.16
2022-07-29T15:35:40.444Z,98688.81
2022-07-29T15:39:05.353Z,98684.94
2022-07-29T15:41:46.385Z,98685.34
2022-07-29T15:44:17.049Z,98684.94
2022-07-29T15:47:06.374Z,98681.03
2022-07-29T15:49:48.178Z,98679.59
2022-07-29T15:52:25.693Z,98680.00
2022-07-29T15:54:58.258Z,98679.88
2022-07-29T15:57:26.063Z,98685.41
2022-07-29T15:59:53.985Z,98679.06
2022-07-29T16:02:27.252Z,98678.97
2022-07-29T16:04:55.116Z,98682.13
2022-07-29T16:07:22.406Z,98679.34
2022-07-29T16:09:53.202Z,98680.44
2022-07-29T16:12:23.016Z,98675.25
2022-07-29T16:14:51.505Z,98682.50
2022-07-29T16:17:21.193Z,98685.44
2022-07-29T16:19:54.493Z,98689.38
2022-07-29T16:22:24.428Z,98677.47
2022-07-29T16:24:57.207Z,98686.41
2022-07-29T16:27:27.145Z,98681.41
2022-07-29T16:30:04.467Z,98678.94
2022-07-29T16:32:32.083Z,98682.13
2022-07-29T16:35:02.082Z,98682.50
2022-07-29T16:37:33.534Z,98679.84
2022-07-29T16:40:01.933Z,98681.50
2022-07-29T16:42:46.226Z,98682.56
2022-07-29T16:45:17.441Z,98687.19
2022-07-29T16:47:48.644Z,98678.81
2022-07-29T16:50:16.631Z,98685.69
2022-07-29T16:52:43.871Z,98686.16
2022-07-29T16:55:13.512Z,98684.34
2022-07-29T16:57:42.673Z,98681.38
2022-07-29T17:00:12.862Z,98676.31
2022-07-29T17:02:43.068Z,98684.28
2022-07-29T17:05:12.353Z,98679.94
2022-07-29T17:07:42.918Z,98682.13
2022-07-29T17:10:11.679Z,98686.84
2022-07-29T17:12:49.376Z,98691.63
2022-07-29T17:15:20.386Z,98691.28
2022-07-29T17:17:55.197Z,98697.66
2022-07-29T17:20:27.527Z,98696.50
2022-07-29T17:23:00.382Z,98690.31
2022-07-29T17:25:33.603Z,98692.22
2022-07-29T17:28:03.269Z,98697.72
2022-07-29T17:30:55.780Z,98694.91
2022-07-29T17:33:25.580Z,98693.31
2022-07-29T17:36:15.346Z,98692.16
2022-07-29T17:38:43.864Z,98696.53
2022-07-29T17:41:12.519Z,98694.56
2022-07-29T17:43:40.248Z,98687.50
2022-07-29T17:46:10.358Z,98697.78
2022-07-29T17:48:40.086Z,98699.00
2022-07-29T17:51:08.765Z,98699.56
2022-07-29T17:53:39.678Z,98703.88
2022-07-29T17:56:08.154Z,98705.94
2022-07-29T17:58:36.485Z,98702.13
2022-07-29T18:01:04.419Z,98703.22
2022-07-29T18:03:32.565Z,98706.91
2022-07-29T18:06:01.551Z,98705.88
2022-07-29T18:08:35.034Z,98714.22
2022-07-29T18:11:03.619Z,98712.84
2022-07-29T18:13:33.541Z,98719.59
2022-07-29T18:16:14.964Z,98719.59
2022-07-29T18:18:46.040Z,98717.84
2022-07-29T18:21:41.113Z,98718.78
2022-07-29T18:24:20.831Z,98716.91
2022-07-29T18:26:48.977Z,98718.06
2022-07-29T18:29:23.161Z,98727.69
2022-07-29T18:31:51.387Z,98723.50
2022-07-29T18:34:19.657Z,98724.69
2022-07-29T18:36:51.235Z,98716.50
2022-07-29T18:39:22.066Z,98717.69
2022-07-29T18:41:52.393Z,98721.59
2022-07-29T18:44:30.512Z,98717.91
2022-07-29T18:47:00.173Z,98719.25
2022-07-29T18:49:33.305Z,98706.13
2022-07-29T18:52:01.460Z,98726.94
2022-07-29T18:55:27.423Z,98707.00
2022-07-29T18:58:02.066Z,98712.31
2022-07-29T19:00:35.957Z,98713.16
2022-07-29T19:03:12.721Z,98716.09
2022-07-29T19:05:56.087Z,98724.84
2022-07-29T19:08:34.278Z,98727.00
2022-07-29T19:11:14.839Z,98728.16
2022-07-29T19:13:42.646Z,98733.75
2022-07-29T19:16:35.182Z,98731.78
2022-07-29T19:19:13.220Z,98743.41
2022-07-29T19:21:42.146Z,98745.06
2022-07-29T19:24:15.257Z,98753.31
2022-07-29T19:26:49.537Z,98755.81
2022-07-29T19:29:18.779Z,98757.13
2022-07-29T19:31:48.512Z,98768.13
2022-07-29T19:34:16.281Z,98762.69
2022-07-29T19:36:43.888Z,98771.69
2022-07-29T19:39:36.818Z,98776.19
2022-07-29T19:42:05.530Z,98775.53
2022-07-29T19:44:35.964Z,98776.19
2022-07-29T19:47:05.171Z,98774.63
2022-07-29T19:49:37.671Z,98775.47
2022-07-29T19:52:10.971Z,98778.28
2022-07-29T19:54:38.933Z,98782.94
2022-07-29T19:57:06.808Z,98779.59
2022-07-29T19:59:34.591Z,98779.56
2022-07-29T20:02:10.737Z,98777.66
2022-07-29T20:04:50.301Z,98779.03
2022-07-29T20:07:24.861Z,98775.69
2022-07-29T20:09:55.735Z,98776.69
2022-07-29T20:12:24.299Z,98773.03
2022-07-29T20:14:51.998Z,98766.50
2022-07-29T20:17:22.499Z,98774.53
2022-07-29T20:19:53.698Z,98778.00
2022-07-29T20:22:27.488Z,98769.66
2022-07-29T20:24:55.339Z,98779.59
2022-07-29T20:27:23.253Z,98776.41
2022-07-29T20:29:51.079Z,98780.56
2022-07-29T20:32:19.547Z,98778.78
2022-07-29T20:34:47.010Z,98781.66
2022-07-29T20:38:33.074Z,98777.53
2022-07-29T20:41:07.465Z,98773.19
2022-07-29T20:44:56.942Z,98780.97
2022-07-29T20:47:36.462Z,98780.38
2022-07-29T20:51:20.549Z,98781.53
2022-07-29T20:55:12.184Z,98778.44
2022-07-29T20:57:40.211Z,98784.97
2022-07-29T21:01:23.614Z,98779.78
2022-07-29T21:03:50.902Z,98788.53
2022-07-29T21:07:33.679Z,98782.34
2022-07-29T21:11:16.307Z,98791.16
2022-07-29T21:13:45.490Z,98788.91
2022-07-29T21:16:14.860Z,98788.47
2022-07-29T21:18:47.238Z,98797.44
2022-07-29T21:21:16.470Z,98789.91
2022-07-29T21:23:45.878Z,98801.50
2022-07-29T21:26:17.916Z,98797.53
2022-07-29T21:30:00.918Z,98804.78
2022-07-29T21:33:50.753Z,98799.34
2022-07-29T21:39:11.329Z,98801.84
2022-07-29T21:41:38.796Z,98795.19
2022-07-29T21:44:08.846Z,98807.94
2022-07-29T21:46:36.610Z,98806.75
2022-07-29T21:49:04.246Z,98809.75
2022-07-29T21:51:31.520Z,98805.69
2022-07-29T21:53:58.879Z,98805.50
2022-07-29T21:56:32.872Z,98812.91
2022-07-29T21:59:00.318Z,98804.56
2022-07-29T22:01:27.751Z,98805.28
2022-07-29T22:03:58.741Z,98802.78
2022-07-29T22:06:26.111Z,98808.34
2022-07-29T22:08:54.994Z,98811.13
2022-07-29T22:11:32.859Z,98813.66
2022-07-29T22:14:20.952Z,98804.56
2022-07-29T22:16:58.013Z,98806.22
2022-07-29T22:19:46.803Z,98813.88
2022-07-29T22:23:30.306Z,98817.41
2022-07-29T22:27:18.246Z,98810.94
2022-07-29T22:29:47.888Z,98817.72
2022-07-29T22:32:38.243Z,98827.22
2022-07-29T22:35:07.822Z,98825.72
2022-07-29T22:37:38.042Z,98825.44
2022-07-29T22:40:07.349Z,98826.69
2022-07-29T22:42:43.662Z,98822.72
2022-07-29T22:45:20.571Z,98814.50
2022-07-29T22:49:29.842Z,98817.50
2022-07-29T22:52:11.284Z,98822.50
2022-07-29T22:54:46.076Z,98817.84
2022-07-29T22:58:29.409Z,98822.50
2022-07-29T23:00:58.309Z,98820.06
2022-07-29T23:03:26.451Z,98815.31
2022-07-29T23:07:13.244Z,98823.84
2022-07-29T23:09:40.550Z,98812.41
2022-07-29T23:12:08.659Z,98810.28
2022-07-29T23:14:36.073Z,98815.09
2022-07-29T23:17:04.688Z,98806.13
2022-07-29T23:20:09.795Z,98807.03
2022-07-29T23:22:40.792Z,98807.16
2022-07-29T23:25:08.842Z,98813.94
2022-07-29T23:27:50.513Z,98809.16
2022-07-29T23:31:13.239Z,98811.59
2022-07-29T23:34:59.804Z,98814.38
2022-07-29T23:37:28.836Z,98807.72
2022-07-29T23:41:12.693Z,98810.53
2022-07-29T23:45:03.622Z,98814.41
2022-07-29T23:49:01.246Z,98807.19
2022-07-29T23:53:16.795Z,98815.19
2022-07-29T23:57:12.963Z,98812.78
